createdAt,value
2018-11-05T00:00:51.775Z,85.80
2018-11-05T00:03:20.771Z,77.50
2018-11-05T00:05:52.961Z,76.13
2018-11-05T00:08:22.120Z,75.27
2018-11-05T00:10:51.700Z,78.77
2018-11-05T00:13:24.253Z,79.57
2018-11-05T00:15:55.668Z,82.57
2018-11-05T00:18:25.760Z,84.73
2018-11-05T00:20:56.232Z,81.60
2018-11-05T00:23:26.562Z,86.87
2018-11-05T00:25:56.325Z,84.30
2018-11-05T00:28:26.180Z,88.23
2018-11-05T00:30:59.437Z,86.03
2018-11-05T00:33:28.644Z,84.03
2018-11-05T00:36:04.881Z,86.03
2018-11-05T00:38:34.073Z,94.63
2018-11-05T00:41:03.871Z,93.43
2018-11-05T00:43:32.954Z,95.03
2018-11-05T00:46:02.659Z,104.77
2018-11-05T00:48:33.703Z,106.60
2018-11-05T00:51:05.063Z,102.80
2018-11-05T00:53:35.033Z,110.00
2018-11-05T00:56:04.078Z,110.27
2018-11-05T00:58:35.377Z,109.47
2018-11-05T01:01:08.288Z,118.23
2018-11-05T01:03:38.202Z,124.10
2018-11-05T01:06:07.260Z,104.47
2018-11-05T01:08:36.368Z,107.93
2018-11-05T01:11:11.155Z,114.03
2018-11-05T01:13:40.275Z,113.43
2018-11-05T01:16:09.377Z,114.13
2018-11-05T01:18:41.800Z,120.53
2018-11-05T01:21:11.614Z,116.63
2018-11-05T01:23:42.646Z,116.43
2018-11-05T01:26:12.410Z,119.10
2018-11-05T01:28:42.490Z,116.30
2018-11-05T01:31:11.674Z,114.10
2018-11-05T01:33:47.456Z,122.13
2018-11-05T01:36:16.517Z,122.63
2018-11-05T01:38:47.763Z,114.87
2018-11-05T01:41:16.842Z,118.73
2018-11-05T01:43:49.685Z,114.03
2018-11-05T01:46:20.322Z,119.40
2018-11-05T01:48:49.384Z,119.43
2018-11-05T01:51:18.474Z,115.20
2018-11-05T01:53:47.656Z,108.27
2018-11-05T01:56:21.221Z,115.10
2018-11-05T01:58:54.551Z,120.00
2018-11-05T02:01:24.750Z,116.93
2018-11-05T02:03:54.764Z,117.73
2018-11-05T02:06:24.053Z,122.80
2018-11-05T02:08:53.108Z,116.30
2018-11-05T02:11:22.376Z,118.97
2018-11-05T02:13:51.445Z,113.90
2018-11-05T02:16:21.564Z,120.37
2018-11-05T02:18:50.864Z,123.63
2018-11-05T02:21:22.285Z,116.83
2018-11-05T02:23:51.367Z,117.57
2018-11-05T02:26:26.334Z,120.40
2018-11-05T02:28:58.446Z,121.07
2018-11-05T02:31:32.617Z,121.93
2018-11-05T02:34:06.153Z,125.47
2018-11-05T02:36:37.639Z,115.70
2018-11-05T02:39:13.706Z,132.97
2018-11-05T02:41:48.320Z,122.10
2018-11-05T02:44:19.903Z,117.70
2018-11-05T02:46:50.762Z,122.33
2018-11-05T02:49:19.774Z,116.57
2018-11-05T02:51:48.909Z,116.87
2018-11-05T02:54:19.764Z,113.80
2018-11-05T02:56:57.089Z,116.03
2018-11-05T02:59:28.044Z,116.83
2018-11-05T03:01:59.032Z,120.47
2018-11-05T03:04:34.186Z,120.03
2018-11-05T03:07:08.750Z,114.27
2018-11-05T03:09:46.193Z,117.07
2018-11-05T03:12:18.631Z,114.77
2018-11-05T03:14:50.355Z,114.10
2018-11-05T03:17:26.854Z,109.23
2018-11-05T03:20:05.856Z,115.70
2018-11-05T03:22:35.206Z,109.10
2018-11-05T03:25:16.791Z,113.50
2018-11-05T03:28:04.650Z,110.63
2018-11-05T03:30:37.188Z,103.57
2018-11-05T03:33:10.348Z,104.07
2018-11-05T03:35:46.494Z,105.97
2018-11-05T03:38:16.247Z,106.70
2018-11-05T03:40:47.666Z,104.43
2018-11-05T03:43:24.409Z,103.83
2018-11-05T03:46:00.290Z,101.83
2018-11-05T03:48:34.770Z,108.20
2018-11-05T03:51:04.021Z,103.00
2018-11-05T03:53:43.864Z,105.53
2018-11-05T03:56:28.203Z,101.03
2018-11-05T03:59:02.367Z,99.07
2018-11-05T04:01:32.760Z,97.97
2018-11-05T04:04:05.064Z,99.87
2018-11-05T04:06:35.931Z,93.03
2018-11-05T04:09:16.580Z,109.03
2018-11-05T04:11:58.437Z,104.90
2018-11-05T04:14:30.411Z,101.53
2018-11-05T04:17:01.675Z,107.93
2018-11-05T04:19:30.759Z,105.33
2018-11-05T04:22:03.732Z,101.13
2018-11-05T04:24:37.500Z,99.80
2018-11-05T04:27:09.435Z,102.17
2018-11-05T04:29:44.100Z,101.53
2018-11-05T04:32:13.360Z,101.43
2018-11-05T04:34:46.356Z,101.50
2018-11-05T04:37:21.588Z,96.37
2018-11-05T04:39:51.088Z,101.67
2018-11-05T04:42:24.182Z,93.53
2018-11-05T04:44:55.460Z,94.90
2018-11-05T04:47:32.094Z,93.37
2018-11-05T04:50:14.648Z,92.73
2018-11-05T04:52:52.686Z,94.77
2018-11-05T04:55:22.485Z,92.33
2018-11-05T04:57:57.814Z,98.97
2018-11-05T05:00:33.577Z,94.47
2018-11-05T05:03:03.245Z,94.30
2018-11-05T05:05:37.482Z,94.67
2018-11-05T05:08:08.134Z,92.93
2018-11-05T05:10:50.502Z,96.50
2018-11-05T05:13:23.439Z,94.33
2018-11-05T05:15:54.286Z,89.37
2018-11-05T05:18:23.435Z,92.70
2018-11-05T05:20:57.130Z,88.10
2018-11-05T05:23:36.187Z,87.07
2018-11-05T05:26:07.844Z,89.03
2018-11-05T05:28:42.049Z,92.43
2018-11-05T05:31:13.405Z,87.13
2018-11-05T05:33:47.747Z,89.57
2018-11-05T05:36:17.139Z,82.70
2018-11-05T05:38:46.221Z,85.37
2018-11-05T05:41:18.393Z,86.77
2018-11-05T05:43:51.669Z,90.70
2018-11-05T05:46:21.395Z,91.90
2018-11-05T05:48:57.983Z,90.33
2018-11-05T05:51:28.651Z,86.50
2018-11-05T05:53:57.751Z,85.97
2018-11-05T05:56:37.359Z,83.57
2018-11-05T05:59:13.789Z,88.37
2018-11-05T06:01:46.996Z,86.40
2018-11-05T06:04:16.059Z,90.90
2018-11-05T06:06:45.312Z,87.47
2018-11-05T06:09:19.036Z,81.77
2018-11-05T06:11:48.450Z,79.63
2018-11-05T06:14:17.802Z,87.00
2018-11-05T06:16:48.550Z,83.87
2018-11-05T06:19:17.880Z,85.13
2018-11-05T06:21:47.370Z,83.20
2018-11-05T06:24:21.183Z,88.30
2018-11-05T06:26:57.913Z,81.63
2018-11-05T06:29:28.827Z,81.77
2018-11-05T06:31:58.361Z,80.73
2018-11-05T06:34:27.551Z,81.70
2018-11-05T06:36:57.059Z,89.70
2018-11-05T06:39:26.359Z,86.63
2018-11-05T06:41:55.906Z,80.87
2018-11-05T06:44:26.034Z,85.03
2018-11-05T06:46:56.186Z,83.00
2018-11-05T06:49:25.599Z,80.27
2018-11-05T06:51:54.969Z,78.23
2018-11-05T06:54:24.691Z,87.50
2018-11-05T06:56:58.979Z,78.17
2018-11-05T06:59:29.477Z,82.70
2018-11-05T07:01:59.964Z,76.30
2018-11-05T07:04:34.970Z,83.73
2018-11-05T07:07:04.604Z,80.67
2018-11-05T07:09:33.849Z,82.83
2018-11-05T07:12:03.137Z,79.77
2018-11-05T07:14:34.239Z,80.80
2018-11-05T07:17:04.484Z,74.63
2018-11-05T07:19:33.799Z,75.03
2018-11-05T07:22:03.254Z,74.80
2018-11-05T07:24:33.072Z,78.30
2018-11-05T07:27:05.706Z,69.87
2018-11-05T07:29:36.049Z,78.50
2018-11-05T07:32:06.337Z,80.07
2018-11-05T07:34:36.836Z,76.73
2018-11-05T07:37:06.187Z,76.00
2018-11-05T07:39:35.739Z,79.80
2018-11-05T07:42:06.247Z,77.27
2018-11-05T07:44:38.373Z,75.87
2018-11-05T07:47:08.998Z,71.47
2018-11-05T07:49:40.298Z,75.73
2018-11-05T07:52:20.766Z,71.00
2018-11-05T07:54:59.130Z,69.60
2018-11-05T07:57:28.913Z,71.57
2018-11-05T08:00:01.997Z,69.30
2018-11-05T08:02:31.795Z,68.63
2018-11-05T08:05:02.226Z,67.60
2018-11-05T08:07:32.307Z,68.80
2018-11-05T08:10:01.576Z,68.77
2018-11-05T08:12:44.781Z,70.43
2018-11-05T08:15:43.810Z,69.10
2018-11-05T08:18:27.358Z,69.10
2018-11-05T08:20:57.537Z,63.27
2018-11-05T08:23:27.556Z,67.17
2018-11-05T08:26:04.595Z,65.87
2018-11-05T08:28:34.416Z,63.43
2018-11-05T08:31:05.498Z,62.87
2018-11-05T08:33:35.432Z,63.93
2018-11-05T08:36:05.488Z,66.17
2018-11-05T08:38:37.183Z,60.93
2018-11-05T08:41:08.337Z,57.40
2018-11-05T08:43:40.019Z,64.17
2018-11-05T08:46:10.283Z,60.40
2018-11-05T08:48:39.595Z,57.67
2018-11-05T08:51:10.360Z,53.87
2018-11-05T08:56:37.680Z,60.07
2018-11-05T08:59:07.425Z,55.67
2018-11-05T09:01:37.172Z,51.53
2018-11-05T09:04:06.859Z,54.20
2018-11-05T09:06:36.239Z,52.87
2018-11-05T09:09:07.826Z,55.50
2018-11-05T09:11:40.857Z,54.30
2018-11-05T09:14:10.289Z,54.58
2018-11-05T09:16:39.465Z,57.97
2018-11-05T09:19:08.856Z,56.00
2018-11-05T09:21:38.187Z,54.73
2018-11-05T09:24:07.547Z,61.60
2018-11-05T09:26:36.890Z,51.07
2018-11-05T09:29:06.432Z,53.30
2018-11-05T09:31:35.658Z,52.78
2018-11-05T09:34:05.250Z,57.73
2018-11-05T09:36:34.770Z,50.95
2018-11-05T09:39:06.407Z,50.90
2018-11-05T09:41:35.654Z,53.60
2018-11-05T09:44:07.039Z,58.70
2018-11-05T09:46:38.501Z,59.10
2018-11-05T09:49:08.104Z,60.57
2018-11-05T09:51:38.051Z,59.27
2018-11-05T09:54:07.119Z,58.60
2018-11-05T09:56:37.303Z,58.90
2018-11-05T09:59:06.690Z,60.60
2018-11-05T10:01:35.757Z,56.33
2018-11-05T10:04:06.484Z,59.33
2018-11-05T10:06:35.946Z,59.27
2018-11-05T10:09:08.481Z,60.60
2018-11-05T10:11:37.550Z,58.37
2018-11-05T10:14:06.935Z,52.93
2018-11-05T10:16:36.142Z,54.13
2018-11-05T10:19:05.222Z,52.20
2018-11-05T10:21:34.529Z,51.63
2018-11-05T10:24:04.097Z,55.52
2018-11-05T10:26:33.153Z,51.80
2018-11-05T10:29:02.276Z,48.65
2018-11-05T10:31:33.288Z,45.05
2018-11-05T10:34:02.806Z,47.50
2018-11-05T10:36:32.258Z,46.42
2018-11-05T10:39:01.489Z,45.12
2018-11-05T10:41:30.507Z,45.75
2018-11-05T10:43:59.674Z,45.40
2018-11-05T10:46:28.869Z,45.90
2018-11-05T10:48:58.156Z,48.00
2018-11-05T10:51:27.423Z,42.08
2018-11-05T10:53:56.435Z,43.10
2018-11-05T10:56:28.433Z,45.12
2018-11-05T10:58:58.379Z,43.40
2018-11-05T11:01:33.005Z,45.65
2018-11-05T11:04:07.786Z,42.75
2018-11-05T11:06:36.887Z,41.63
2018-11-05T11:09:08.073Z,48.63
2018-11-05T11:11:37.234Z,45.43
2018-11-05T11:14:07.093Z,49.50
2018-11-05T11:16:36.159Z,44.93
2018-11-05T11:19:05.643Z,43.85
2018-11-05T11:21:34.801Z,44.00
2018-11-05T11:24:03.999Z,44.35
2018-11-05T11:26:33.761Z,44.90
2018-11-05T11:29:03.025Z,47.70
2018-11-05T11:31:32.318Z,43.37
2018-11-05T11:34:01.361Z,41.53
2018-11-05T11:36:30.867Z,41.30
2018-11-05T11:38:59.993Z,42.38
2018-11-05T11:41:29.305Z,41.92
2018-11-05T11:43:58.515Z,42.63
2018-11-05T11:46:30.012Z,46.90
2018-11-05T11:48:59.320Z,48.13
2018-11-05T11:51:28.540Z,43.70
2018-11-05T11:53:57.719Z,40.40
2018-11-05T11:56:26.809Z,41.97
2018-11-05T11:58:57.084Z,42.93
2018-11-05T12:01:26.647Z,42.78
2018-11-05T12:03:55.856Z,42.15
2018-11-05T12:06:25.167Z,41.93
2018-11-05T12:09:17.369Z,42.23
2018-11-05T12:12:14.973Z,42.87
2018-11-05T12:15:19.396Z,41.55
2018-11-05T12:17:54.262Z,47.88
2018-11-05T12:21:03.506Z,40.43
2018-11-05T12:36:58.227Z,43.80
2018-11-05T12:39:30.326Z,41.70
2018-11-05T12:42:01.145Z,43.05
2018-11-05T12:44:36.678Z,41.88
2018-11-05T12:47:06.678Z,40.33
2018-11-05T12:49:35.794Z,38.63
2018-11-05T12:52:05.416Z,43.40
2018-11-05T12:54:35.426Z,41.20
2018-11-05T12:57:04.619Z,40.00
2018-11-05T12:59:35.296Z,46.08
2018-11-05T13:02:04.666Z,41.08
2018-11-05T13:04:34.298Z,40.05
2018-11-05T13:07:03.526Z,44.80
2018-11-05T13:09:33.735Z,45.23
2018-11-05T13:12:07.712Z,44.80
2018-11-05T13:14:37.001Z,43.98
2018-11-05T13:17:06.158Z,43.95
2018-11-05T13:19:35.470Z,47.13
2018-11-05T13:22:05.685Z,43.20
2018-11-05T13:24:36.059Z,43.52
2018-11-05T13:27:12.623Z,42.78
2018-11-05T13:29:42.382Z,43.98
2018-11-05T13:32:11.721Z,42.63
2018-11-05T13:34:44.007Z,44.80
2018-11-05T13:37:13.568Z,47.73
2018-11-05T13:39:42.411Z,41.25
2018-11-05T13:42:12.327Z,46.87
2018-11-05T13:44:41.677Z,51.75
2018-11-05T13:47:11.215Z,47.35
2018-11-05T13:49:40.148Z,45.70
2018-11-05T13:52:11.696Z,47.25
2018-11-05T13:54:41.813Z,44.77
2018-11-05T13:57:10.806Z,52.53
2018-11-05T13:59:40.172Z,50.57
2018-11-05T14:02:10.414Z,47.37
2018-11-05T14:04:39.811Z,47.53
2018-11-05T14:07:08.816Z,50.70
2018-11-05T14:09:38.261Z,52.73
2018-11-05T14:12:07.405Z,53.50
2018-11-05T14:14:36.543Z,47.50
2018-11-05T14:17:06.940Z,51.67
2018-11-05T14:19:36.312Z,56.48
2018-11-05T14:22:07.612Z,52.40
2018-11-05T14:24:37.992Z,55.83
2018-11-05T14:27:07.483Z,49.93
2018-11-05T14:29:37.089Z,54.40
2018-11-05T14:32:06.098Z,51.90
2018-11-05T14:34:35.331Z,43.13
2018-11-05T14:37:05.110Z,43.75
2018-11-05T14:39:34.209Z,47.83
2018-11-05T14:42:03.249Z,46.57
2018-11-05T14:44:33.901Z,44.80
2018-11-05T14:47:03.341Z,49.75
2018-11-05T14:49:32.702Z,54.07
2018-11-05T14:52:01.871Z,51.97
2018-11-05T14:54:31.583Z,46.33
2018-11-05T14:57:00.639Z,43.97
2018-11-05T14:59:30.241Z,48.50
2018-11-05T15:02:04.784Z,56.53
2018-11-05T15:04:35.155Z,56.47
2018-11-05T15:07:04.650Z,55.67
2018-11-05T15:09:33.675Z,45.70
2018-11-05T15:12:03.024Z,51.87
2018-11-05T15:14:32.627Z,49.00
2018-11-05T15:17:02.360Z,49.93
2018-11-05T15:19:32.318Z,48.20
2018-11-05T15:22:01.178Z,46.03
2018-11-05T15:24:31.269Z,46.27
2018-11-05T15:27:00.935Z,52.53
2018-11-05T15:29:30.250Z,48.57
2018-11-05T15:32:00.635Z,46.40
2018-11-05T15:34:30.555Z,42.33
2018-11-05T15:36:59.684Z,42.27
2018-11-05T15:39:28.797Z,42.03
2018-11-05T15:42:00.901Z,39.07
2018-11-05T15:44:31.179Z,41.07
2018-11-05T15:47:00.877Z,37.63
2018-11-05T15:49:31.974Z,43.10
2018-11-05T15:52:02.366Z,39.63
2018-11-05T15:54:36.801Z,42.23
2018-11-05T15:57:06.513Z,41.30
2018-11-05T15:59:35.598Z,38.93
2018-11-05T16:02:10.330Z,45.03
2018-11-05T16:04:40.969Z,44.00
2018-11-05T16:07:11.308Z,40.33
2018-11-05T16:09:42.981Z,39.63
2018-11-05T16:12:12.170Z,37.40
2018-11-05T16:14:41.931Z,42.60
2018-11-05T16:17:12.202Z,37.93
2018-11-05T16:19:41.152Z,43.13
2018-11-05T16:22:10.164Z,38.20
2018-11-05T16:24:39.244Z,37.90
2018-11-05T16:27:08.152Z,42.40
2018-11-05T16:29:37.315Z,39.70
2018-11-05T16:32:06.422Z,41.23
2018-11-05T16:34:35.581Z,38.13
2018-11-05T16:37:06.376Z,38.43
2018-11-05T16:39:35.579Z,44.20
2018-11-05T16:42:04.776Z,39.53
2018-11-05T16:44:35.003Z,39.53
2018-11-05T16:47:04.399Z,39.07
2018-11-05T16:49:40.121Z,43.00
2018-11-05T16:52:10.425Z,45.23
2018-11-05T16:54:40.033Z,38.30
2018-11-05T16:57:14.466Z,42.60
2018-11-05T16:59:44.073Z,40.47
2018-11-05T17:02:15.225Z,43.57
2018-11-05T17:04:45.291Z,41.50
2018-11-05T17:07:14.337Z,40.33
2018-11-05T17:09:43.404Z,39.93
2018-11-05T17:12:13.726Z,45.07
2018-11-05T17:14:43.584Z,42.33
2018-11-05T17:17:13.112Z,43.30
2018-11-05T17:19:43.777Z,40.87
2018-11-05T17:22:12.800Z,39.90
2018-11-05T17:24:42.620Z,42.17
2018-11-05T17:27:11.615Z,41.23
2018-11-05T17:29:40.674Z,44.20
2018-11-05T17:32:09.688Z,41.07
2018-11-05T17:34:38.732Z,41.80
2018-11-05T17:37:07.815Z,49.40
2018-11-05T17:39:37.630Z,41.20
2018-11-05T17:42:06.821Z,42.80
2018-11-05T17:44:35.880Z,45.07
2018-11-05T17:47:04.905Z,44.40
2018-11-05T17:49:35.601Z,42.67
2018-11-05T17:52:05.212Z,44.00
2018-11-05T17:54:37.158Z,42.63
2018-11-05T17:57:06.337Z,43.90
2018-11-05T17:59:36.358Z,41.90
2018-11-05T18:02:05.982Z,45.63
2018-11-05T18:04:35.259Z,44.90
2018-11-05T18:07:04.157Z,47.97
2018-11-05T18:09:33.467Z,43.57
2018-11-05T18:12:06.563Z,45.93
2018-11-05T18:14:36.912Z,46.77
2018-11-05T18:17:06.934Z,48.20
2018-11-05T18:19:36.093Z,45.47
2018-11-05T18:22:05.970Z,41.13
2018-11-05T18:24:35.694Z,43.03
2018-11-05T18:27:05.767Z,45.90
2018-11-05T18:32:21.242Z,41.80
2018-11-05T18:34:52.574Z,42.30
2018-11-05T18:37:22.012Z,42.17
2018-11-05T18:39:51.017Z,40.83
2018-11-05T18:42:20.064Z,39.23
2018-11-05T18:44:49.386Z,38.33
2018-11-05T18:47:18.950Z,40.77
2018-11-05T18:49:48.246Z,40.67
2018-11-05T18:52:17.652Z,39.63
2018-11-05T18:54:47.470Z,40.77
2018-11-05T18:57:16.496Z,38.33
2018-11-05T18:59:46.492Z,41.57
2018-11-05T19:02:21.012Z,37.73
2018-11-05T19:04:50.167Z,39.77
2018-11-05T19:07:19.246Z,42.77
2018-11-05T19:09:48.357Z,42.67
2018-11-05T19:12:17.524Z,38.87
2018-11-05T19:14:47.145Z,39.67
2018-11-05T19:17:16.204Z,41.63
2018-11-05T19:19:51.539Z,40.53
2018-11-05T19:22:20.972Z,37.77
2018-11-05T19:24:50.033Z,39.87
2018-11-05T19:27:19.747Z,40.27
2018-11-05T19:29:48.883Z,40.03
2018-11-05T19:32:18.276Z,43.30
2018-11-05T19:34:48.172Z,41.17
2018-11-05T19:37:17.212Z,42.37
2018-11-05T19:39:50.241Z,41.73
2018-11-05T19:42:19.486Z,44.60
2018-11-05T19:44:53.962Z,38.77
2018-11-05T19:47:23.172Z,43.33
2018-11-05T19:49:54.898Z,37.97
2018-11-05T19:52:29.078Z,41.77
2018-11-05T19:55:01.166Z,40.67
2018-11-05T19:57:39.175Z,40.93
2018-11-05T20:00:20.300Z,38.43
2018-11-05T20:02:53.795Z,41.90
2018-11-05T20:05:30.712Z,41.00
2018-11-05T20:08:01.744Z,40.67
2018-11-05T20:10:32.043Z,39.07
2018-11-05T20:13:01.700Z,44.60
2018-11-05T20:15:32.084Z,42.60
2018-11-05T20:18:05.810Z,40.37
2018-11-05T20:20:51.285Z,39.80
2018-11-05T20:23:20.595Z,40.67
2018-11-05T20:25:50.689Z,37.07
2018-11-05T20:28:19.973Z,38.90
2018-11-05T20:30:51.321Z,38.77
2018-11-05T20:33:23.152Z,32.83
2018-11-05T20:35:52.518Z,35.83
2018-11-05T20:38:21.949Z,35.90
2018-11-05T20:40:52.134Z,37.50
2018-11-05T20:43:22.448Z,35.30
2018-11-05T20:45:52.016Z,38.33
2018-11-05T20:48:22.177Z,38.70
2018-11-05T20:50:51.738Z,35.90
2018-11-05T20:53:20.912Z,35.83
2018-11-05T20:55:50.324Z,31.50
2018-11-05T20:58:19.889Z,35.37
2018-11-05T21:00:49.332Z,34.77
2018-11-05T21:03:18.641Z,30.23
2018-11-05T21:05:47.861Z,30.20
2018-11-05T21:08:16.980Z,31.93
2018-11-05T21:10:46.083Z,31.37
2018-11-05T21:13:15.765Z,31.07
2018-11-05T21:15:44.854Z,30.20
2018-11-05T21:18:14.400Z,30.87
2018-11-05T21:20:43.553Z,34.00
2018-11-05T21:23:12.829Z,30.83
2018-11-05T21:25:42.165Z,30.87
2018-11-05T21:28:11.512Z,30.67
2018-11-05T21:30:40.888Z,30.87
2018-11-05T21:33:10.146Z,29.10
2018-11-05T21:35:39.713Z,31.77
2018-11-05T21:38:08.971Z,27.10
2018-11-05T21:40:38.432Z,27.37
2018-11-05T21:43:07.805Z,28.10
2018-11-05T21:45:38.028Z,32.00
2018-11-05T21:48:07.910Z,25.43
2018-11-05T21:50:37.197Z,27.07
2018-11-05T21:53:07.283Z,28.37
2018-11-05T21:55:39.186Z,30.40
2018-11-05T21:58:08.799Z,27.30
2018-11-05T22:00:39.293Z,25.63
2018-11-05T22:03:15.195Z,26.43
2018-11-05T22:05:46.095Z,25.97
2018-11-05T22:08:15.962Z,25.87
2018-11-05T22:10:45.568Z,25.10
2018-11-05T22:13:15.145Z,23.80
2018-11-05T22:15:47.452Z,24.30
2018-11-05T22:18:17.807Z,25.57
2018-11-05T22:20:47.182Z,23.90
2018-11-05T22:23:18.326Z,31.63
2018-11-05T22:25:48.206Z,24.87
2018-11-05T22:28:17.573Z,24.20
2018-11-05T22:30:47.485Z,24.47
2018-11-05T22:33:17.479Z,25.93
2018-11-05T22:35:46.955Z,22.40
2018-11-05T22:38:16.515Z,21.83
2018-11-05T22:40:47.589Z,26.13
2018-11-05T22:43:18.425Z,20.83
2018-11-05T22:45:48.221Z,21.33
2018-11-05T22:48:17.946Z,21.77
2018-11-05T22:50:48.549Z,22.20
2018-11-05T22:53:27.629Z,21.97
2018-11-05T22:56:05.779Z,21.03
2018-11-05T22:58:36.099Z,21.30
2018-11-05T23:01:09.419Z,24.43
2018-11-05T23:03:38.668Z,21.93
2018-11-05T23:06:08.736Z,25.87
2018-11-05T23:08:39.013Z,20.07
2018-11-05T23:11:08.156Z,22.77
2018-11-05T23:13:37.819Z,20.70
2018-11-05T23:16:07.108Z,18.67
2018-11-05T23:18:36.239Z,21.40
2018-11-05T23:21:05.950Z,21.43
2018-11-05T23:23:35.072Z,22.83
2018-11-05T23:26:04.222Z,21.70
2018-11-05T23:28:33.693Z,20.83
2018-11-05T23:31:02.983Z,21.13
2018-11-05T23:33:32.938Z,19.23
2018-11-05T23:36:02.020Z,20.00
2018-11-05T23:38:31.200Z,22.13
2018-11-05T23:41:00.545Z,21.10
2018-11-05T23:43:29.585Z,19.17
2018-11-05T23:45:58.708Z,19.27
2018-11-05T23:48:27.953Z,18.53
2018-11-05T23:50:57.037Z,19.23
2018-11-05T23:53:26.263Z,19.27
2018-11-05T23:55:55.517Z,18.63
2018-11-05T23:58:24.690Z,20.97
